createdAt,value
2023-02-08T00:00:38.772Z,97985.75
2023-02-08T00:01:43.566Z,97990.59
2023-02-08T00:02:45.589Z,97987.44
2023-02-08T00:03:51.034Z,97982.09
2023-02-08T00:04:52.948Z,97975.44
2023-02-08T00:05:57.548Z,97976.34
2023-02-08T00:06:59.547Z,97980.34
2023-02-08T00:08:04.107Z,97986.72
2023-02-08T00:09:09.174Z,97979.69
2023-02-08T00:10:12.384Z,97980.56
2023-02-08T00:11:17.027Z,97981.28
2023-02-08T00:12:19.139Z,97979.28
2023-02-08T00:13:26.717Z,97972.63
2023-02-08T00:14:28.692Z,97972.44
2023-02-08T00:15:33.274Z,97976.63
2023-02-08T00:16:35.380Z,97971.28
2023-02-08T00:17:40.077Z,97963.66
2023-02-08T00:18:42.206Z,97968.63
2023-02-08T00:19:46.772Z,97970.06
2023-02-08T00:20:48.747Z,97970.81
2023-02-08T00:21:54.134Z,97963.03
2023-02-08T00:22:57.332Z,97970.66
2023-02-08T00:24:02.037Z,97961.06
2023-02-08T00:25:04.292Z,97961.84
2023-02-08T00:26:10.943Z,97963.56
2023-02-08T00:27:13.052Z,97960.28
2023-02-08T00:28:19.901Z,97958.75
2023-02-08T00:29:24.628Z,97960.31
2023-02-08T00:30:29.510Z,97959.47
2023-02-08T00:31:31.551Z,97962.00
2023-02-08T00:32:36.309Z,97955.94
2023-02-08T00:33:38.379Z,97955.09
2023-02-08T00:34:43.065Z,97961.13
2023-02-08T00:35:45.356Z,97967.63
2023-02-08T00:36:51.358Z,97961.59
2023-02-08T00:37:53.369Z,97956.53
2023-02-08T00:38:57.939Z,97960.50
2023-02-08T00:40:02.648Z,97954.94
2023-02-08T00:41:07.948Z,97951.41
2023-02-08T00:42:09.992Z,97952.25
2023-02-08T00:43:14.558Z,97953.06
2023-02-08T00:44:16.590Z,97950.69
2023-02-08T00:45:23.968Z,97948.75
2023-02-08T00:46:26.534Z,97957.19
2023-02-08T00:47:31.417Z,97954.78
2023-02-08T00:48:33.469Z,97952.47
2023-02-08T00:49:38.087Z,97950.97
2023-02-08T00:50:40.309Z,97944.25
2023-02-08T00:51:45.167Z,97944.47
2023-02-08T00:52:47.162Z,97951.09
2023-02-08T00:53:51.777Z,97943.81
2023-02-08T00:54:53.814Z,97945.81
2023-02-08T00:55:59.300Z,97951.56
2023-02-08T00:57:01.311Z,97956.84
2023-02-08T00:58:05.946Z,97947.25
2023-02-08T00:59:08.295Z,97949.91
2023-02-08T01:00:14.672Z,97949.28
2023-02-08T01:01:19.390Z,97948.53
2023-02-08T01:02:23.977Z,97952.72
2023-02-08T01:03:26.442Z,97946.06
2023-02-08T01:04:31.275Z,97949.53
2023-02-08T01:05:33.287Z,97954.50
2023-02-08T01:06:37.876Z,97952.91
2023-02-08T01:07:40.665Z,97956.31
2023-02-08T01:08:45.768Z,97949.78
2023-02-08T01:09:47.752Z,97958.56
2023-02-08T01:10:52.448Z,97953.47
2023-02-08T01:11:54.536Z,97954.25
2023-02-08T01:12:59.099Z,97950.94
2023-02-08T01:14:03.678Z,97957.72
2023-02-08T01:15:06.521Z,97954.34
2023-02-08T01:16:14.046Z,97947.97
2023-02-08T01:17:18.652Z,97948.81
2023-02-08T01:18:23.276Z,97945.31
2023-02-08T01:19:25.315Z,97953.78
2023-02-08T01:20:30.200Z,97950.47
2023-02-08T01:21:37.551Z,97943.69
2023-02-08T01:22:39.579Z,97949.63
2023-02-08T01:23:45.042Z,97951.38
2023-02-08T01:24:47.124Z,97943.75
2023-02-08T01:25:51.687Z,97952.19
2023-02-08T01:26:53.647Z,97952.31
2023-02-08T01:27:59.714Z,97946.28
2023-02-08T01:29:02.316Z,97938.63
2023-02-08T01:30:08.001Z,97942.63
2023-02-08T01:31:12.845Z,97938.38
2023-02-08T01:32:17.528Z,97945.09
2023-02-08T01:33:22.579Z,97943.28
2023-02-08T01:34:27.214Z,97936.66
2023-02-08T01:35:29.368Z,97934.13
2023-02-08T01:36:35.026Z,97934.06
2023-02-08T01:37:37.009Z,97932.34
2023-02-08T01:38:42.142Z,97936.53
2023-02-08T01:39:46.747Z,97931.47
2023-02-08T01:40:49.001Z,97936.44
2023-02-08T01:41:53.628Z,97928.88
2023-02-08T01:42:55.682Z,97933.72
2023-02-08T01:44:32.277Z,97930.19
2023-02-08T01:45:34.409Z,97921.09
2023-02-08T01:46:40.720Z,97928.47
2023-02-08T01:47:43.564Z,97928.22
2023-02-08T01:48:52.126Z,97933.25
2023-02-08T01:49:54.710Z,97929.81
2023-02-08T01:51:02.885Z,97920.28
2023-02-08T01:52:09.014Z,97929.19
2023-02-08T01:53:14.263Z,97933.28
2023-02-08T01:54:19.927Z,97932.38
2023-02-08T01:55:28.900Z,97924.88
2023-02-08T01:56:38.604Z,97923.00
2023-02-08T01:57:42.229Z,97924.72
2023-02-08T01:58:49.637Z,97921.22
2023-02-08T01:59:54.434Z,97918.69
2023-02-08T02:00:59.205Z,97927.97
2023-02-08T02:02:03.078Z,97924.00
2023-02-08T02:03:25.252Z,97922.88
2023-02-08T02:04:30.851Z,97915.38
2023-02-08T02:05:41.165Z,97923.75
2023-02-08T02:06:46.859Z,97924.75
2023-02-08T02:07:52.476Z,97923.81
2023-02-08T02:09:03.192Z,97921.16
2023-02-08T02:10:13.608Z,97917.81
2023-02-08T02:11:16.161Z,97920.56
2023-02-08T02:12:21.100Z,97927.31
2023-02-08T02:13:26.580Z,97922.34
2023-02-08T02:14:31.812Z,97913.25
2023-02-08T02:15:34.314Z,97911.44
2023-02-08T02:16:39.148Z,97917.38
2023-02-08T02:17:41.632Z,97909.28
2023-02-08T02:18:46.627Z,97910.38
2023-02-08T02:20:00.990Z,97908.53
2023-02-08T02:21:31.860Z,97905.34
2023-02-08T02:23:17.989Z,97904.34
2023-02-08T02:25:01.367Z,97896.91
2023-02-08T02:26:32.143Z,97901.09
2023-02-08T02:28:11.892Z,97891.06
2023-02-08T02:29:40.097Z,97896.13
2023-02-08T02:31:14.536Z,97891.34
2023-02-08T02:32:37.019Z,97882.00
2023-02-08T02:34:06.392Z,97897.31
2023-02-08T02:35:16.247Z,97882.94
2023-02-08T02:36:32.166Z,97882.34
2023-02-08T02:37:49.720Z,97887.34
2023-02-08T02:39:08.336Z,97884.75
2023-02-08T02:40:19.945Z,97884.88
2023-02-08T02:41:49.509Z,97889.06
2023-02-08T02:43:16.278Z,97878.03
2023-02-08T02:44:28.775Z,97887.25
2023-02-08T02:45:35.429Z,97886.41
2023-02-08T02:46:49.049Z,97891.94
2023-02-08T02:48:02.458Z,97891.22
2023-02-08T02:49:12.196Z,97886.94
2023-02-08T02:50:22.931Z,97881.84
2023-02-08T02:51:32.127Z,97889.47
2023-02-08T02:52:40.609Z,97889.47
2023-02-08T02:53:55.237Z,97896.38
2023-02-08T02:55:03.210Z,97891.34
2023-02-08T02:56:14.899Z,97892.19
2023-02-08T02:57:20.989Z,97893.19
2023-02-08T02:58:29.298Z,97892.31
2023-02-08T02:59:34.033Z,97889.88
2023-02-08T03:00:39.164Z,97889.88
2023-02-08T03:01:43.576Z,97888.13
2023-02-08T03:02:48.148Z,97888.00
2023-02-08T03:03:56.474Z,97883.19
2023-02-08T03:04:58.477Z,97885.59
2023-02-08T03:06:06.585Z,97884.09
2023-02-08T03:07:17.634Z,97885.59
2023-02-08T03:08:40.046Z,97879.47
2023-02-08T03:09:51.742Z,97887.94
2023-02-08T03:11:18.807Z,97884.50
2023-02-08T03:12:38.087Z,97880.38
2023-02-08T03:14:17.225Z,97889.59
2023-02-08T03:15:29.144Z,97887.88
2023-02-08T03:16:42.708Z,97894.50
2023-02-08T03:18:03.600Z,97884.34
2023-02-08T03:19:23.017Z,97888.47
2023-02-08T03:20:28.197Z,97886.69
2023-02-08T03:21:42.313Z,97890.78
2023-02-08T03:22:51.444Z,97884.84
2023-02-08T03:24:03.290Z,97890.06
2023-02-08T03:25:11.803Z,97884.16
2023-02-08T03:26:22.244Z,97884.16
2023-02-08T03:27:31.671Z,97886.81
2023-02-08T03:28:43.404Z,97886.69
2023-02-08T03:29:56.600Z,97882.44
2023-02-08T03:31:08.474Z,97881.56
2023-02-08T03:32:17.792Z,97882.44
2023-02-08T03:33:27.913Z,97884.28
2023-02-08T03:34:44.760Z,97879.09
2023-02-08T03:35:57.456Z,97878.56
2023-02-08T03:37:04.948Z,97879.22
2023-02-08T03:38:13.838Z,97886.03
2023-02-08T03:39:21.456Z,97875.94
2023-02-08T03:40:31.163Z,97875.31
2023-02-08T03:41:35.663Z,97876.19
2023-02-08T03:42:43.100Z,97879.66
2023-02-08T03:43:50.131Z,97876.22
2023-02-08T03:44:58.963Z,97874.44
2023-02-08T03:46:07.815Z,97879.31
2023-02-08T03:47:17.531Z,97876.44
2023-02-08T03:48:22.371Z,97877.50
2023-02-08T03:49:31.138Z,97880.84
2023-02-08T03:50:42.430Z,97875.59
2023-02-08T03:51:46.444Z,97883.28
2023-02-08T03:52:53.361Z,97880.97
2023-02-08T03:53:58.973Z,97880.97
2023-02-08T03:55:07.764Z,97884.41
2023-02-08T03:56:15.120Z,97875.63
2023-02-08T03:57:24.057Z,97880.69
2023-02-08T03:58:32.678Z,97872.22
2023-02-08T03:59:44.005Z,97874.41
2023-02-08T04:00:51.802Z,97876.78
2023-02-08T04:02:00.905Z,97875.50
2023-02-08T04:03:08.859Z,97880.78
2023-02-08T04:04:15.391Z,97874.91
2023-02-08T04:05:18.304Z,97879.19
2023-02-08T04:06:26.165Z,97872.47
2023-02-08T04:07:28.186Z,97877.50
2023-02-08T04:08:33.159Z,97870.66
2023-02-08T04:09:37.266Z,97879.69
2023-02-08T04:10:43.508Z,97866.34
2023-02-08T04:11:45.583Z,97872.22
2023-02-08T04:12:51.944Z,97876.56
2023-02-08T04:13:53.962Z,97870.00
2023-02-08T04:14:58.516Z,97873.41
2023-02-08T04:16:00.649Z,97875.81
2023-02-08T04:17:05.709Z,97869.13
2023-02-08T04:18:07.896Z,97871.88
2023-02-08T04:19:12.530Z,97875.03
2023-02-08T04:20:14.551Z,97863.31
2023-02-08T04:21:19.168Z,97872.47
2023-02-08T04:22:26.378Z,97870.59
2023-02-08T04:23:28.429Z,97873.94
2023-02-08T04:24:33.236Z,97869.00
2023-02-08T04:25:37.902Z,97863.69
2023-02-08T04:26:39.882Z,97864.09
2023-02-08T04:27:44.447Z,97863.81
2023-02-08T04:28:46.449Z,97864.69
2023-02-08T04:29:51.095Z,97861.97
2023-02-08T04:30:55.330Z,97861.84
2023-02-08T04:32:00.225Z,97867.75
2023-02-08T04:33:04.904Z,97856.94
2023-02-08T04:34:06.886Z,97856.22
2023-02-08T04:35:11.597Z,97861.97
2023-02-08T04:36:16.303Z,97856.97
2023-02-08T04:37:18.287Z,97860.25
2023-02-08T04:38:25.544Z,97862.72
2023-02-08T04:39:27.623Z,97855.06
2023-02-08T04:40:32.191Z,97849.84
2023-02-08T04:41:34.220Z,97856.59
2023-02-08T04:42:38.814Z,97858.19
2023-02-08T04:43:40.819Z,97859.03
2023-02-08T04:44:45.444Z,97859.59
2023-02-08T04:45:47.395Z,97851.22
2023-02-08T04:46:51.941Z,97861.31
2023-02-08T04:47:54.187Z,97857.72
2023-02-08T04:48:59.176Z,97859.03
2023-02-08T04:50:01.166Z,97860.66
2023-02-08T04:51:05.896Z,97857.28
2023-02-08T04:52:10.691Z,97859.72
2023-02-08T04:53:13.134Z,97858.66
2023-02-08T04:54:20.493Z,97843.63
2023-02-08T04:55:22.807Z,97847.91
2023-02-08T04:56:27.697Z,97844.66
2023-02-08T04:57:29.653Z,97855.19
2023-02-08T04:58:34.267Z,97856.94
2023-02-08T04:59:36.264Z,97851.88
2023-02-08T05:00:41.165Z,97849.22
2023-02-08T05:01:43.426Z,97848.28
2023-02-08T05:02:48.218Z,97848.16
2023-02-08T05:03:50.322Z,97851.44
2023-02-08T05:04:54.988Z,97855.84
2023-02-08T05:05:57.898Z,97850.13
2023-02-08T05:07:02.474Z,97850.00
2023-02-08T05:08:04.997Z,97855.00
2023-02-08T05:09:11.298Z,97843.13
2023-02-08T05:10:16.128Z,97849.75
2023-02-08T05:11:23.236Z,97846.16
2023-02-08T05:12:25.595Z,97847.75
2023-02-08T05:13:30.160Z,97851.91
2023-02-08T05:14:32.160Z,97849.97
2023-02-08T05:15:37.576Z,97847.47
2023-02-08T05:16:42.200Z,97860.78
2023-02-08T05:17:44.396Z,97852.25
2023-02-08T05:18:49.054Z,97860.78
2023-02-08T05:19:53.673Z,97847.31
2023-02-08T05:20:57.179Z,97848.28
2023-02-08T05:22:01.780Z,97849.38
2023-02-08T05:23:03.765Z,97850.19
2023-02-08T05:24:12.726Z,97853.78
2023-02-08T05:25:18.232Z,97853.38
2023-02-08T05:26:23.458Z,97854.31
2023-02-08T05:27:26.069Z,97844.91
2023-02-08T05:28:30.707Z,97851.53
2023-02-08T05:29:32.720Z,97847.31
2023-02-08T05:30:37.332Z,97859.09
2023-02-08T05:31:39.537Z,97852.13
2023-02-08T05:32:44.297Z,97857.31
2023-02-08T05:33:46.350Z,97855.59
2023-02-08T05:34:51.024Z,97853.06
2023-02-08T05:35:53.055Z,97860.63
2023-02-08T05:36:57.892Z,97853.66
2023-02-08T05:37:59.895Z,97860.22
2023-02-08T05:39:04.444Z,97861.94
2023-02-08T05:40:07.729Z,97865.53
2023-02-08T05:41:15.054Z,97858.63
2023-02-08T05:42:17.124Z,97862.78
2023-02-08T05:43:21.705Z,97863.75
2023-02-08T05:44:23.729Z,97860.38
2023-02-08T05:45:28.323Z,97863.94
2023-02-08T05:46:30.477Z,97863.66
2023-02-08T05:47:35.242Z,97862.75
2023-02-08T05:48:37.380Z,97860.06
2023-02-08T05:49:41.897Z,97868.50
2023-02-08T05:50:43.901Z,97854.50
2023-02-08T05:51:50.432Z,97859.47
2023-02-08T05:52:52.400Z,97860.50
2023-02-08T05:53:56.957Z,97852.41
2023-02-08T05:54:59.093Z,97859.19
2023-02-08T05:56:03.745Z,97857.53
2023-02-08T05:57:08.343Z,97858.44
2023-02-08T05:58:12.917Z,97862.81
2023-02-08T05:59:14.902Z,97863.47
2023-02-08T06:00:20.227Z,97859.97
2023-02-08T06:01:22.595Z,97857.69
2023-02-08T06:02:27.199Z,97861.34
2023-02-08T06:03:29.155Z,97857.03
2023-02-08T06:04:33.750Z,97863.28
2023-02-08T06:05:40.472Z,97855.72
2023-02-08T06:06:42.557Z,97862.91
2023-02-08T06:07:47.356Z,97857.19
2023-02-08T06:08:49.359Z,97862.44
2023-02-08T06:09:54.002Z,97865.69
2023-02-08T06:10:56.059Z,97864.84
2023-02-08T06:12:00.706Z,97863.31
2023-02-08T06:13:05.832Z,97870.06
2023-02-08T06:14:10.496Z,97869.13
2023-02-08T06:15:12.547Z,97875.78
2023-02-08T06:16:19.961Z,97870.88
2023-02-08T06:17:22.127Z,97868.22
2023-02-08T06:18:26.972Z,97867.53
2023-02-08T06:19:28.934Z,97875.13
2023-02-08T06:20:34.198Z,97875.34
2023-02-08T06:21:36.279Z,97879.53
2023-02-08T06:22:41.117Z,97875.38
2023-02-08T06:23:43.093Z,97871.28
2023-02-08T06:24:48.749Z,97867.09
2023-02-08T06:25:54.023Z,97870.69
2023-02-08T06:26:57.258Z,97873.28
2023-02-08T06:28:02.157Z,97876.72
2023-02-08T06:29:06.894Z,97876.66
2023-02-08T06:30:12.950Z,97879.19
2023-02-08T06:31:17.594Z,97870.69
2023-02-08T06:32:19.647Z,97874.88
2023-02-08T06:33:25.144Z,97873.28
2023-02-08T06:34:27.239Z,97868.03
2023-02-08T06:35:31.930Z,97869.59
2023-02-08T06:36:34.112Z,97883.75
2023-02-08T06:37:38.740Z,97872.22
2023-02-08T06:38:43.420Z,97867.22
2023-02-08T06:39:45.881Z,97872.34
2023-02-08T06:40:51.737Z,97872.25
2023-02-08T06:41:56.555Z,97873.41
2023-02-08T06:42:58.613Z,97860.72
2023-02-08T06:44:03.173Z,97869.94
2023-02-08T06:45:11.033Z,97869.75
2023-02-08T06:46:16.668Z,97869.59
2023-02-08T06:47:18.661Z,97871.41
2023-02-08T06:48:23.273Z,97873.00
2023-02-08T06:49:27.882Z,97872.69
2023-02-08T06:50:32.505Z,97873.41
2023-02-08T06:51:34.467Z,97871.66
2023-02-08T06:52:39.793Z,97869.13
2023-02-08T06:53:41.805Z,97874.13
2023-02-08T06:54:46.372Z,97875.13
2023-02-08T06:55:51.895Z,97875.25
2023-02-08T06:56:56.563Z,97875.25
2023-02-08T06:57:58.616Z,97866.31
2023-02-08T06:59:03.294Z,97868.88
2023-02-08T07:00:12.097Z,97875.63
2023-02-08T07:01:14.636Z,97872.22
2023-02-08T07:02:22.062Z,97867.03
2023-02-08T07:03:24.135Z,97870.47
2023-02-08T07:04:28.954Z,97876.53
2023-02-08T07:05:33.579Z,97876.31
2023-02-08T07:06:35.580Z,97874.06
2023-02-08T07:07:40.174Z,97869.25
2023-02-08T07:08:42.664Z,97865.16
2023-02-08T07:09:47.896Z,97866.13
2023-02-08T07:10:49.947Z,97873.78
2023-02-08T07:11:54.569Z,97874.59
2023-02-08T07:12:59.230Z,97876.44
2023-02-08T07:14:03.857Z,97873.09
2023-02-08T07:15:13.339Z,97876.44
2023-02-08T07:16:18.767Z,97871.38
2023-02-08T07:17:26.070Z,97874.97
2023-02-08T07:18:31.426Z,97874.16
2023-02-08T07:19:33.646Z,97877.63
2023-02-08T07:20:38.331Z,97881.13
2023-02-08T07:21:43.081Z,97881.09
2023-02-08T07:22:45.089Z,97882.75
2023-02-08T07:23:49.800Z,97883.59
2023-02-08T07:24:55.169Z,97884.72
2023-02-08T07:25:58.880Z,97882.50
2023-02-08T07:27:04.541Z,97880.78
2023-02-08T07:28:09.283Z,97880.03
2023-02-08T07:29:13.986Z,97887.81
2023-02-08T07:30:18.922Z,97877.81
2023-02-08T07:31:23.628Z,97892.38
2023-02-08T07:32:25.732Z,97884.91
2023-02-08T07:33:30.297Z,97887.41
2023-02-08T07:34:37.314Z,97888.50
2023-02-08T07:35:42.498Z,97885.97
2023-02-08T07:36:44.463Z,97884.44
2023-02-08T07:37:49.049Z,97882.00
2023-02-08T07:38:53.800Z,97882.28
2023-02-08T07:39:56.594Z,97884.19
2023-02-08T07:41:04.939Z,97882.53
2023-02-08T07:42:11.524Z,97883.50
2023-02-08T07:43:13.600Z,97886.34
2023-02-08T07:44:18.175Z,97884.75
2023-02-08T07:45:22.806Z,97887.28
2023-02-08T07:46:27.457Z,97890.66
2023-02-08T07:47:32.150Z,97888.16
2023-02-08T07:48:34.254Z,97884.97
2023-02-08T07:49:38.987Z,97892.69
2023-02-08T07:50:41.341Z,97876.69
2023-02-08T07:51:46.192Z,97880.38
2023-02-08T07:52:50.829Z,97877.94
2023-02-08T07:53:55.483Z,97885.56
2023-02-08T07:54:57.541Z,97884.19
2023-02-08T07:56:02.319Z,97882.34
2023-02-08T07:57:07.088Z,97875.00
2023-02-08T07:58:09.077Z,97877.00
2023-02-08T07:59:14.480Z,97873.28
2023-02-08T08:00:21.099Z,97879.25
2023-02-08T08:01:28.567Z,97877.16
2023-02-08T08:02:30.776Z,97865.56
2023-02-08T08:03:35.406Z,97860.63
2023-02-08T08:04:40.021Z,97863.31
2023-02-08T08:05:45.202Z,97858.22
2023-02-08T08:06:50.536Z,97855.19
2023-02-08T08:07:55.225Z,97853.13
2023-02-08T08:08:59.844Z,97854.50
2023-02-08T08:10:04.553Z,97858.06
2023-02-08T08:11:06.874Z,97851.19
2023-02-08T08:12:11.527Z,97857.25
2023-02-08T08:13:13.538Z,97857.88
2023-02-08T08:14:18.388Z,97861.63
2023-02-08T08:15:23.036Z,97851.50
2023-02-08T08:16:30.417Z,97848.25
2023-02-08T08:17:35.086Z,97844.34
2023-02-08T08:18:39.922Z,97838.97
2023-02-08T08:19:44.564Z,97847.84
2023-02-08T08:20:49.260Z,97834.72
2023-02-08T08:21:53.928Z,97830.03
2023-02-08T08:22:58.620Z,97832.38
2023-02-08T08:24:03.205Z,97831.03
2023-02-08T08:25:08.741Z,97824.53
2023-02-08T08:26:16.620Z,97823.22
2023-02-08T08:27:18.598Z,97823.47
2023-02-08T08:28:23.423Z,97832.47
2023-02-08T08:29:25.875Z,97825.94
2023-02-08T08:30:30.953Z,97822.63
2023-02-08T08:31:35.704Z,97832.03
2023-02-08T08:32:40.728Z,97835.16
2023-02-08T08:33:42.810Z,97830.25
2023-02-08T08:34:47.519Z,97827.69
2023-02-08T08:35:52.272Z,97821.22
2023-02-08T08:36:56.859Z,97815.44
2023-02-08T08:37:58.861Z,97812.81
2023-02-08T08:39:03.572Z,97814.66
2023-02-08T08:40:10.441Z,97817.19
2023-02-08T08:41:18.150Z,97819.78
2023-02-08T08:42:23.135Z,97812.28
2023-02-08T08:43:27.914Z,97803.81
2023-02-08T08:44:32.616Z,97813.91
2023-02-08T08:45:37.476Z,97805.50
2023-02-08T08:46:44.831Z,97800.41
2023-02-08T08:47:46.872Z,97806.41
2023-02-08T08:48:52.217Z,97801.28
2023-02-08T08:49:56.919Z,97805.56
2023-02-08T08:51:01.581Z,97809.84
2023-02-08T08:52:03.696Z,97803.84
2023-02-08T08:53:08.470Z,97801.28
2023-02-08T08:54:13.217Z,97800.44
2023-02-08T08:55:17.812Z,97806.41
2023-02-08T08:56:22.481Z,97791.00
2023-02-08T08:57:24.519Z,97807.25
2023-02-08T08:58:29.294Z,97793.56
2023-02-08T08:59:34.073Z,97804.72
2023-02-08T09:00:36.111Z,97802.97
2023-02-08T09:01:42.896Z,97802.16
2023-02-08T09:02:50.280Z,97809.00
2023-02-08T09:03:55.001Z,97793.56
2023-02-08T09:05:00.448Z,97804.69
2023-02-08T09:06:05.080Z,97800.41
2023-02-08T09:07:10.888Z,97804.72
2023-02-08T09:08:15.649Z,97793.53
2023-02-08T09:09:18.433Z,97796.91
2023-02-08T09:10:23.069Z,97785.63
2023-02-08T09:11:25.059Z,97784.66
2023-02-08T09:12:29.674Z,97786.19
2023-02-08T09:13:34.241Z,97785.19
2023-02-08T09:14:39.273Z,97781.72
2023-02-08T09:15:41.779Z,97785.94
2023-02-08T09:16:48.340Z,97775.72
2023-02-08T09:17:55.723Z,97787.63
2023-02-08T09:19:04.171Z,97778.16
2023-02-08T09:20:09.849Z,97783.34
2023-02-08T09:21:16.841Z,97780.13
2023-02-08T09:22:21.682Z,97789.38
2023-02-08T09:23:26.391Z,97782.53
2023-02-08T09:24:31.081Z,97777.19
2023-02-08T09:25:36.122Z,97780.56
2023-02-08T09:26:41.393Z,97773.91
2023-02-08T09:27:46.032Z,97781.50
2023-02-08T09:28:50.785Z,97781.03
2023-02-08T09:29:55.484Z,97777.25
2023-02-08T09:31:01.901Z,97776.78
2023-02-08T09:32:08.867Z,97777.31
2023-02-08T09:33:17.401Z,97774.78
2023-02-08T09:34:22.041Z,97775.53
2023-02-08T09:35:26.650Z,97771.88
2023-02-08T09:36:38.299Z,97767.25
2023-02-08T09:37:42.701Z,97761.94
2023-02-08T09:38:48.194Z,97756.22
2023-02-08T09:39:53.176Z,97774.50
2023-02-08T09:41:04.370Z,97769.28
2023-02-08T09:42:30.000Z,97760.81
2023-02-08T09:43:43.843Z,97754.06
2023-02-08T09:45:05.636Z,97756.16
2023-02-08T09:46:16.676Z,97750.25
2023-02-08T09:47:22.986Z,97742.63
2023-02-08T09:48:35.436Z,97739.13
2023-02-08T09:49:44.685Z,97740.66
2023-02-08T09:50:53.625Z,97744.94
2023-02-08T09:52:04.519Z,97750.41
2023-02-08T09:53:17.238Z,97739.56
2023-02-08T09:54:25.543Z,97746.94
2023-02-08T09:55:36.125Z,97740.38
2023-02-08T09:56:44.940Z,97750.22
2023-02-08T09:57:51.649Z,97753.06
2023-02-08T09:58:57.968Z,97748.16
2023-02-08T10:00:04.736Z,97744.66
2023-02-08T10:01:16.087Z,97747.16
2023-02-08T10:02:26.383Z,97740.38
2023-02-08T10:03:38.179Z,97731.53
2023-02-08T10:04:52.540Z,97744.81
2023-02-08T10:05:57.600Z,97742.06
2023-02-08T10:07:02.449Z,97738.22
2023-02-08T10:08:11.362Z,97739.53
2023-02-08T10:09:18.786Z,97734.22
2023-02-08T10:10:32.968Z,97745.56
2023-02-08T10:11:59.312Z,97739.47
2023-02-08T10:13:07.848Z,97737.19
2023-02-08T10:14:29.286Z,97754.69
2023-02-08T10:15:42.551Z,97740.06
2023-02-08T10:17:02.295Z,97748.88
2023-02-08T10:18:26.132Z,97751.22
2023-02-08T10:19:54.058Z,97750.41
2023-02-08T10:21:16.357Z,97753.13
2023-02-08T10:22:32.358Z,97753.06
2023-02-08T10:23:57.283Z,97749.50
2023-02-08T10:25:25.083Z,97745.75
2023-02-08T10:26:38.861Z,97754.72
2023-02-08T10:27:56.140Z,97744.03
2023-02-08T10:29:36.322Z,97746.97
2023-02-08T10:30:50.136Z,97746.28
2023-02-08T10:32:08.913Z,97738.22
2023-02-08T10:33:20.403Z,97744.38
2023-02-08T10:34:41.017Z,97735.81
2023-02-08T10:35:50.311Z,97733.09
2023-02-08T10:36:53.090Z,97738.13
2023-02-08T10:37:59.548Z,97726.00
2023-02-08T10:39:06.878Z,97732.81
2023-02-08T10:40:33.466Z,97739.91
2023-02-08T10:41:39.804Z,97739.63
2023-02-08T10:42:48.557Z,97738.97
2023-02-08T10:44:01.479Z,97737.59
2023-02-08T10:45:24.207Z,97724.94
2023-02-08T10:46:35.207Z,97726.88
2023-02-08T10:47:47.205Z,97727.53
2023-02-08T10:49:09.044Z,97732.00
2023-02-08T10:50:25.378Z,97726.44
2023-02-08T10:51:31.026Z,97721.16
2023-02-08T10:52:33.260Z,97734.69
2023-02-08T10:53:37.905Z,97732.16
2023-02-08T10:54:40.092Z,97724.56
2023-02-08T10:55:46.528Z,97720.91
2023-02-08T10:56:58.874Z,97725.00
2023-02-08T10:58:07.647Z,97709.34
2023-02-08T10:59:20.350Z,97721.97
2023-02-08T11:00:28.027Z,97722.09
2023-02-08T11:01:32.746Z,97719.56
2023-02-08T11:02:42.390Z,97712.47
2023-02-08T11:04:05.063Z,97721.16
2023-02-08T11:05:12.786Z,97722.19
2023-02-08T11:06:31.317Z,97720.13
2023-02-08T11:07:37.169Z,97710.25
2023-02-08T11:08:58.987Z,97721.59
2023-02-08T11:10:28.211Z,97704.94
2023-02-08T11:11:38.878Z,97696.69
2023-02-08T11:12:44.786Z,97699.66
2023-02-08T11:13:53.095Z,97704.50
2023-02-08T11:14:58.255Z,97698.34
2023-02-08T11:16:05.244Z,97696.75
2023-02-08T11:17:27.978Z,97704.78
2023-02-08T11:18:35.683Z,97694.94
2023-02-08T11:19:46.262Z,97687.59
2023-02-08T11:20:53.712Z,97687.22
2023-02-08T11:22:01.733Z,97697.00
2023-02-08T11:23:07.564Z,97688.28
2023-02-08T11:24:29.885Z,97697.53
2023-02-08T11:25:40.934Z,97690.28
2023-02-08T11:26:46.605Z,97701.97
2023-02-08T11:27:51.648Z,97686.66
2023-02-08T11:29:07.868Z,97689.19
2023-02-08T11:30:26.703Z,97675.59
2023-02-08T11:31:32.524Z,97665.31
2023-02-08T11:32:37.456Z,97670.53
2023-02-08T11:34:01.553Z,97676.88
2023-02-08T11:35:16.175Z,97670.72
2023-02-08T11:36:20.888Z,97672.81
2023-02-08T11:37:29.191Z,97668.66
2023-02-08T11:38:34.177Z,97660.53
2023-02-08T11:39:42.961Z,97681.00
2023-02-08T11:40:46.118Z,97676.13
2023-02-08T11:41:53.747Z,97666.56
2023-02-08T11:42:59.528Z,97671.84
2023-02-08T11:44:07.475Z,97669.28
2023-02-08T11:45:21.102Z,97674.38
2023-02-08T11:46:27.742Z,97678.50
2023-02-08T11:47:34.092Z,97667.19
2023-02-08T11:48:43.562Z,97661.81
2023-02-08T11:49:55.894Z,97662.00
2023-02-08T11:51:00.753Z,97668.13
2023-02-08T11:52:05.729Z,97664.88
2023-02-08T11:53:33.689Z,97665.00
2023-02-08T11:54:41.751Z,97659.34
2023-02-08T11:55:44.212Z,97658.41
2023-02-08T11:57:04.892Z,97668.38
2023-02-08T11:58:23.248Z,97664.19
2023-02-08T11:59:29.298Z,97674.06
2023-02-08T12:00:35.285Z,97666.69
2023-02-08T12:01:41.749Z,97669.09
2023-02-08T12:02:44.257Z,97666.56
2023-02-08T12:03:52.252Z,97666.03
2023-02-08T12:04:56.920Z,97662.50
2023-02-08T12:06:16.220Z,97668.63
2023-02-08T12:07:28.682Z,97667.63
2023-02-08T12:08:46.409Z,97670.63
2023-02-08T12:10:22.103Z,97677.97
2023-02-08T12:11:37.641Z,97676.72
2023-02-08T12:12:56.898Z,97673.56
2023-02-08T12:14:34.831Z,97666.63
2023-02-08T12:15:58.216Z,97654.81
2023-02-08T12:17:30.549Z,97668.75
2023-02-08T12:18:56.767Z,97669.31
2023-02-08T12:20:17.872Z,97666.31
2023-02-08T12:21:27.147Z,97658.03
2023-02-08T12:22:30.618Z,97663.19
2023-02-08T12:23:52.140Z,97648.66
2023-02-08T12:25:16.812Z,97649.56
2023-02-08T12:26:30.331Z,97639.22
2023-02-08T12:27:45.223Z,97656.91
2023-02-08T12:29:08.992Z,97659.22
2023-02-08T12:30:25.234Z,97653.25
2023-02-08T12:31:44.521Z,97647.53
2023-02-08T12:33:09.737Z,97649.03
2023-02-08T12:34:17.883Z,97646.09
2023-02-08T12:36:01.408Z,97637.28
2023-02-08T12:37:32.283Z,97639.66
2023-02-08T12:39:19.670Z,97636.22
2023-02-08T12:40:49.462Z,97633.22
2023-02-08T12:42:21.107Z,97639.88
2023-02-08T12:43:43.265Z,97627.38
2023-02-08T12:45:03.861Z,97634.28
2023-02-08T12:46:21.505Z,97628.03
2023-02-08T12:47:38.570Z,97621.75
2023-02-08T12:49:08.127Z,97612.94
2023-02-08T12:50:26.957Z,97622.56
2023-02-08T12:51:39.004Z,97608.66
2023-02-08T12:52:46.377Z,97614.53
2023-02-08T12:53:59.643Z,97610.69
2023-02-08T12:55:09.957Z,97610.81
2023-02-08T12:56:16.728Z,97610.44
2023-02-08T12:57:25.223Z,97604.00
2023-02-08T12:58:32.509Z,97600.28
2023-02-08T12:59:42.035Z,97609.84
2023-02-08T13:00:49.017Z,97611.28
2023-02-08T13:01:57.471Z,97605.53
2023-02-08T13:03:11.136Z,97602.28
2023-02-08T13:04:22.170Z,97601.97
2023-02-08T13:05:32.879Z,97603.91
2023-02-08T13:06:44.467Z,97600.28
2023-02-08T13:07:50.976Z,97598.16
2023-02-08T13:09:03.769Z,97598.34
2023-02-08T13:10:16.041Z,97595.94
2023-02-08T13:11:27.340Z,97599.59
2023-02-08T13:12:36.887Z,97591.06
2023-02-08T13:13:44.435Z,97602.19
2023-02-08T13:14:53.194Z,97591.47
2023-02-08T13:16:02.848Z,97588.81
2023-02-08T13:17:15.235Z,97588.78